sensor_id;sensor_type;location;lat;lon;timestamp;P1;durP1;ratioP1;P2;durP2;ratioP2
65289;SDS011;51893;59.754;10.110;2022-12-24T00:01:21;7.70;;;3.60;;
65289;SDS011;51893;59.754;10.110;2022-12-24T00:03:51;5.60;;;3.50;;
65289;SDS011;51893;59.754;10.110;2022-12-24T00:06:20;2.50;;;1.70;;
65289;SDS011;51893;59.754;10.110;2022-12-24T00:08:51;5.20;;;2.90;;
65289;SDS011;51893;59.754;10.110;2022-12-24T00:11:18;2.70;;;1.90;;
65289;SDS011;51893;59.754;10.110;2022-12-24T00:13:46;5.20;;;3.00;;
65289;SDS011;51893;59.754;10.110;2022-12-24T00:16:13;4.00;;;3.00;;
65289;SDS011;51893;59.754;10.110;2022-12-24T00:18:40;7.80;;;3.90;;
65289;SDS011;51893;59.754;10.110;2022-12-24T00:21:13;7.80;;;3.20;;
65289;SDS011;51893;59.754;10.110;2022-12-24T00:23:42;2.30;;;1.90;;
65289;SDS011;51893;59.754;10.110;2022-12-24T00:26:14;3.00;;;2.40;;
65289;SDS011;51893;59.754;10.110;2022-12-24T00:28:42;6.70;;;3.60;;
65289;SDS011;51893;59.754;10.110;2022-12-24T00:31:12;8.40;;;4.10;;
65289;SDS011;51893;59.754;10.110;2022-12-24T00:33:41;9.00;;;4.10;;
65289;SDS011;51893;59.754;10.110;2022-12-24T00:36:08;4.60;;;3.20;;
65289;SDS011;51893;59.754;10.110;2022-12-24T00:38:35;7.90;;;4.10;;
65289;SDS011;51893;59.754;10.110;2022-12-24T00:41:08;5.70;;;3.40;;
65289;SDS011;51893;59.754;10.110;2022-12-24T00:43:57;8.70;;;3.60;;
65289;SDS011;51893;59.754;10.110;2022-12-24T00:46:30;6.80;;;3.20;;
65289;SDS011;51893;59.754;10.110;2022-12-24T00:48:58;7.40;;;3.10;;
65289;SDS011;51893;59.754;10.110;2022-12-24T00:51:26;2.00;;;1.40;;
65289;SDS011;51893;59.754;10.110;2022-12-24T00:53:53;5.00;;;3.10;;
65289;SDS011;51893;59.754;10.110;2022-12-24T00:56:21;3.40;;;2.40;;
65289;SDS011;51893;59.754;10.110;2022-12-24T00:58:50;8.80;;;3.00;;
65289;SDS011;51893;59.754;10.110;2022-12-24T01:01:19;6.30;;;3.50;;
65289;SDS011;51893;59.754;10.110;2022-12-24T01:03:47;4.70;;;3.00;;
65289;SDS011;51893;59.754;10.110;2022-12-24T01:06:20;4.70;;;3.10;;
65289;SDS011;51893;59.754;10.110;2022-12-24T01:08:50;7.70;;;3.40;;
65289;SDS011;51893;59.754;10.110;2022-12-24T01:11:21;8.30;;;4.10;;
65289;SDS011;51893;59.754;10.110;2022-12-24T01:13:47;4.60;;;2.90;;
65289;SDS011;51893;59.754;10.110;2022-12-24T01:16:18;6.20;;;3.10;;
65289;SDS011;51893;59.754;10.110;2022-12-24T01:18:45;6.20;;;3.40;;
65289;SDS011;51893;59.754;10.110;2022-12-24T01:21:13;7.20;;;3.50;;
65289;SDS011;51893;59.754;10.110;2022-12-24T01:23:41;7.80;;;3.30;;
65289;SDS011;51893;59.754;10.110;2022-12-24T01:26:10;7.70;;;2.90;;
65289;SDS011;51893;59.754;10.110;2022-12-24T01:28:40;8.40;;;3.40;;
65289;SDS011;51893;59.754;10.110;2022-12-24T01:31:12;3.90;;;2.60;;
65289;SDS011;51893;59.754;10.110;2022-12-24T01:33:41;7.30;;;3.50;;
65289;SDS011;51893;59.754;10.110;2022-12-24T01:36:21;6.90;;;3.30;;
65289;SDS011;51893;59.754;10.110;2022-12-24T01:38:48;4.10;;;2.60;;
65289;SDS011;51893;59.754;10.110;2022-12-24T01:41:18;3.70;;;2.50;;
65289;SDS011;51893;59.754;10.110;2022-12-24T01:47:24;6.60;;;3.20;;
65289;SDS011;51893;59.754;10.110;2022-12-24T01:50:00;5.10;;;2.30;;
65289;SDS011;51893;59.754;10.110;2022-12-24T01:52:43;7.70;;;3.60;;
65289;SDS011;51893;59.754;10.110;2022-12-24T01:55:13;4.80;;;2.70;;
65289;SDS011;51893;59.754;10.110;2022-12-24T01:57:50;3.90;;;2.30;;
65289;SDS011;51893;59.754;10.110;2022-12-24T02:00:22;6.30;;;2.90;;
65289;SDS011;51893;59.754;10.110;2022-12-24T02:02:51;6.80;;;3.40;;
65289;SDS011;51893;59.754;10.110;2022-12-24T02:05:30;5.20;;;2.80;;
65289;SDS011;51893;59.754;10.110;2022-12-24T02:08:03;6.50;;;3.00;;
65289;SDS011;51893;59.754;10.110;2022-12-24T02:10:30;7.40;;;3.20;;
65289;SDS011;51893;59.754;10.110;2022-12-24T02:13:00;5.20;;;3.20;;
65289;SDS011;51893;59.754;10.110;2022-12-24T02:21:38;4.90;;;2.50;;
65289;SDS011;51893;59.754;10.110;2022-12-24T02:27:16;4.90;;;2.30;;
65289;SDS011;51893;59.754;10.110;2022-12-24T02:32:42;4.00;;;2.60;;
65289;SDS011;51893;59.754;10.110;2022-12-24T02:35:43;3.50;;;2.50;;
65289;SDS011;51893;59.754;10.110;2022-12-24T02:38:25;2.10;;;1.50;;
65289;SDS011;51893;59.754;10.110;2022-12-24T02:41:01;8.00;;;3.30;;
65289;SDS011;51893;59.754;10.110;2022-12-24T02:43:44;7.30;;;2.90;;
65289;SDS011;51893;59.754;10.110;2022-12-24T02:46:20;4.70;;;3.20;;
65289;SDS011;51893;59.754;10.110;2022-12-24T02:48:51;5.60;;;3.00;;
65289;SDS011;51893;59.754;10.110;2022-12-24T02:51:23;4.90;;;2.70;;
65289;SDS011;51893;59.754;10.110;2022-12-24T02:53:51;5.80;;;2.40;;
65289;SDS011;51893;59.754;10.110;2022-12-24T03:11:02;4.10;;;2.90;;
65289;SDS011;51893;59.754;10.110;2022-12-24T03:13:36;4.50;;;2.70;;
65289;SDS011;51893;59.754;10.110;2022-12-24T03:16:10;4.20;;;3.20;;
65289;SDS011;51893;59.754;10.110;2022-12-24T03:18:43;3.40;;;2.30;;
65289;SDS011;51893;59.754;10.110;2022-12-24T03:21:16;4.60;;;2.90;;
65289;SDS011;51893;59.754;10.110;2022-12-24T03:23:58;3.60;;;2.70;;
65289;SDS011;51893;59.754;10.110;2022-12-24T03:26:34;7.90;;;2.80;;
65289;SDS011;51893;59.754;10.110;2022-12-24T03:29:05;1.60;;;1.50;;
65289;SDS011;51893;59.754;10.110;2022-12-24T03:31:49;5.30;;;2.50;;
65289;SDS011;51893;59.754;10.110;2022-12-24T03:34:23;6.10;;;2.40;;
65289;SDS011;51893;59.754;10.110;2022-12-24T03:36:50;3.90;;;2.60;;
65289;SDS011;51893;59.754;10.110;2022-12-24T03:39:16;4.30;;;2.50;;
65289;SDS011;51893;59.754;10.110;2022-12-24T03:41:44;3.60;;;2.20;;
65289;SDS011;51893;59.754;10.110;2022-12-24T03:44:10;7.40;;;3.20;;
65289;SDS011;51893;59.754;10.110;2022-12-24T03:46:37;4.40;;;2.40;;
65289;SDS011;51893;59.754;10.110;2022-12-24T03:49:04;7.10;;;3.30;;
65289;SDS011;51893;59.754;10.110;2022-12-24T03:51:30;1.50;;;1.40;;
65289;SDS011;51893;59.754;10.110;2022-12-24T03:53:59;3.30;;;2.40;;
65289;SDS011;51893;59.754;10.110;2022-12-24T03:56:26;1.70;;;1.30;;
65289;SDS011;51893;59.754;10.110;2022-12-24T03:58:54;1.70;;;1.30;;
65289;SDS011;51893;59.754;10.110;2022-12-24T04:01:20;4.20;;;1.90;;
65289;SDS011;51893;59.754;10.110;2022-12-24T04:03:46;5.70;;;2.30;;
65289;SDS011;51893;59.754;10.110;2022-12-24T04:06:14;4.10;;;2.10;;
65289;SDS011;51893;59.754;10.110;2022-12-24T04:08:44;2.30;;;2.10;;
65289;SDS011;51893;59.754;10.110;2022-12-24T04:11:13;2.00;;;1.40;;
65289;SDS011;51893;59.754;10.110;2022-12-24T04:13:41;1.20;;;1.00;;
65289;SDS011;51893;59.754;10.110;2022-12-24T04:16:11;3.60;;;1.80;;
65289;SDS011;51893;59.754;10.110;2022-12-24T04:18:39;2.80;;;2.40;;
65289;SDS011;51893;59.754;10.110;2022-12-24T04:21:09;2.20;;;1.80;;
65289;SDS011;51893;59.754;10.110;2022-12-24T04:23:39;5.00;;;2.40;;
65289;SDS011;51893;59.754;10.110;2022-12-24T04:26:11;2.50;;;2.30;;
65289;SDS011;51893;59.754;10.110;2022-12-24T04:28:40;2.30;;;2.10;;
65289;SDS011;51893;59.754;10.110;2022-12-24T04:31:15;9.50;;;2.70;;
65289;SDS011;51893;59.754;10.110;2022-12-24T04:33:44;4.40;;;2.20;;
65289;SDS011;51893;59.754;10.110;2022-12-24T04:36:13;2.90;;;2.60;;
65289;SDS011;51893;59.754;10.110;2022-12-24T04:38:44;3.40;;;2.10;;
65289;SDS011;51893;59.754;10.110;2022-12-24T04:41:15;4.70;;;2.40;;
65289;SDS011;51893;59.754;10.110;2022-12-24T04:43:52;3.30;;;1.90;;
65289;SDS011;51893;59.754;10.110;2022-12-24T04:46:24;5.20;;;2.50;;
65289;SDS011;51893;59.754;10.110;2022-12-24T04:48:53;2.90;;;2.00;;
65289;SDS011;51893;59.754;10.110;2022-12-24T04:51:20;3.60;;;2.60;;
65289;SDS011;51893;59.754;10.110;2022-12-24T04:53:50;3.30;;;2.10;;
65289;SDS011;51893;59.754;10.110;2022-12-24T04:56:22;2.80;;;2.20;;
65289;SDS011;51893;59.754;10.110;2022-12-24T04:58:51;4.10;;;2.30;;
65289;SDS011;51893;59.754;10.110;2022-12-24T05:01:21;3.10;;;2.10;;
65289;SDS011;51893;59.754;10.110;2022-12-24T05:03:50;4.90;;;2.30;;
65289;SDS011;51893;59.754;10.110;2022-12-24T05:06:20;7.00;;;2.50;;
65289;SDS011;51893;59.754;10.110;2022-12-24T05:08:48;3.40;;;2.60;;
65289;SDS011;51893;59.754;10.110;2022-12-24T05:11:15;4.50;;;2.50;;
65289;SDS011;51893;59.754;10.110;2022-12-24T05:13:42;5.50;;;2.50;;
65289;SDS011;51893;59.754;10.110;2022-12-24T05:16:15;3.30;;;1.70;;
65289;SDS011;51893;59.754;10.110;2022-12-24T05:18:43;3.10;;;2.00;;
65289;SDS011;51893;59.754;10.110;2022-12-24T05:21:12;3.90;;;2.70;;
65289;SDS011;51893;59.754;10.110;2022-12-24T05:23:44;4.80;;;2.70;;
65289;SDS011;51893;59.754;10.110;2022-12-24T05:26:45;4.00;;;2.60;;
65289;SDS011;51893;59.754;10.110;2022-12-24T05:29:22;4.40;;;2.70;;
65289;SDS011;51893;59.754;10.110;2022-12-24T05:31:53;2.20;;;1.40;;
65289;SDS011;51893;59.754;10.110;2022-12-24T05:34:19;3.20;;;2.10;;
65289;SDS011;51893;59.754;10.110;2022-12-24T05:36:46;5.30;;;2.30;;
65289;SDS011;51893;59.754;10.110;2022-12-24T05:39:17;1.50;;;1.40;;
65289;SDS011;51893;59.754;10.110;2022-12-24T05:41:46;4.40;;;2.40;;
65289;SDS011;51893;59.754;10.110;2022-12-24T05:44:14;2.80;;;1.90;;
65289;SDS011;51893;59.754;10.110;2022-12-24T05:46:43;4.40;;;2.40;;
65289;SDS011;51893;59.754;10.110;2022-12-24T05:49:10;1.90;;;1.70;;
65289;SDS011;51893;59.754;10.110;2022-12-24T05:51:37;3.10;;;2.20;;
65289;SDS011;51893;59.754;10.110;2022-12-24T05:54:05;3.20;;;2.20;;
65289;SDS011;51893;59.754;10.110;2022-12-24T05:56:32;4.30;;;2.20;;
65289;SDS011;51893;59.754;10.110;2022-12-24T05:58:58;4.80;;;2.00;;
65289;SDS011;51893;59.754;10.110;2022-12-24T06:01:25;2.70;;;2.10;;
65289;SDS011;51893;59.754;10.110;2022-12-24T06:03:52;1.50;;;1.40;;
65289;SDS011;51893;59.754;10.110;2022-12-24T06:06:22;2.50;;;2.30;;
65289;SDS011;51893;59.754;10.110;2022-12-24T06:08:51;4.60;;;2.20;;
65289;SDS011;51893;59.754;10.110;2022-12-24T06:11:24;3.10;;;2.40;;
65289;SDS011;51893;59.754;10.110;2022-12-24T06:13:52;1.90;;;1.70;;
65289;SDS011;51893;59.754;10.110;2022-12-24T06:16:22;3.80;;;1.80;;
65289;SDS011;51893;59.754;10.110;2022-12-24T06:18:53;1.10;;;1.10;;
65289;SDS011;51893;59.754;10.110;2022-12-24T06:21:21;2.30;;;2.00;;
65289;SDS011;51893;59.754;10.110;2022-12-24T06:23:49;3.50;;;2.00;;
65289;SDS011;51893;59.754;10.110;2022-12-24T06:26:20;2.10;;;1.90;;
65289;SDS011;51893;59.754;10.110;2022-12-24T06:28:49;4.00;;;2.40;;
65289;SDS011;51893;59.754;10.110;2022-12-24T06:31:19;5.10;;;2.20;;
65289;SDS011;51893;59.754;10.110;2022-12-24T06:33:47;2.30;;;1.80;;
65289;SDS011;51893;59.754;10.110;2022-12-24T06:36:17;6.10;;;2.80;;
65289;SDS011;51893;59.754;10.110;2022-12-24T06:38:46;4.50;;;2.10;;
65289;SDS011;51893;59.754;10.110;2022-12-24T06:41:14;3.00;;;1.80;;
65289;SDS011;51893;59.754;10.110;2022-12-24T06:43:44;5.60;;;1.30;;
65289;SDS011;51893;59.754;10.110;2022-12-24T06:46:14;3.30;;;1.80;;
65289;SDS011;51893;59.754;10.110;2022-12-24T06:48:43;8.20;;;3.00;;
65289;SDS011;51893;59.754;10.110;2022-12-24T06:51:11;5.30;;;2.60;;
65289;SDS011;51893;59.754;10.110;2022-12-24T06:53:41;3.20;;;2.30;;
65289;SDS011;51893;59.754;10.110;2022-12-24T06:56:10;2.10;;;1.80;;
65289;SDS011;51893;59.754;10.110;2022-12-24T06:58:39;3.40;;;2.40;;
65289;SDS011;51893;59.754;10.110;2022-12-24T07:01:10;1.80;;;1.30;;
65289;SDS011;51893;59.754;10.110;2022-12-24T07:03:39;1.80;;;1.40;;
65289;SDS011;51893;59.754;10.110;2022-12-24T07:06:06;1.70;;;1.60;;
65289;SDS011;51893;59.754;10.110;2022-12-24T07:08:40;0.30;;;0.30;;
65289;SDS011;51893;59.754;10.110;2022-12-24T07:11:08;3.60;;;2.00;;
65289;SDS011;51893;59.754;10.110;2022-12-24T07:13:34;3.80;;;2.70;;
65289;SDS011;51893;59.754;10.110;2022-12-24T07:16:02;5.00;;;3.10;;
65289;SDS011;51893;59.754;10.110;2022-12-24T07:18:32;5.80;;;3.00;;
65289;SDS011;51893;59.754;10.110;2022-12-24T07:21:02;9.80;;;4.20;;
65289;SDS011;51893;59.754;10.110;2022-12-24T07:23:30;7.90;;;4.60;;
65289;SDS011;51893;59.754;10.110;2022-12-24T07:26:00;5.80;;;3.30;;
65289;SDS011;51893;59.754;10.110;2022-12-24T07:28:30;7.60;;;4.80;;
65289;SDS011;51893;59.754;10.110;2022-12-24T07:30:57;7.60;;;3.90;;
65289;SDS011;51893;59.754;10.110;2022-12-24T07:33:26;3.70;;;3.10;;
65289;SDS011;51893;59.754;10.110;2022-12-24T07:36:04;3.70;;;2.40;;
65289;SDS011;51893;59.754;10.110;2022-12-24T07:38:33;5.30;;;2.50;;
65289;SDS011;51893;59.754;10.110;2022-12-24T07:41:00;4.80;;;2.30;;
65289;SDS011;51893;59.754;10.110;2022-12-24T07:43:27;3.80;;;2.20;;
65289;SDS011;51893;59.754;10.110;2022-12-24T07:45:56;2.90;;;2.70;;
65289;SDS011;51893;59.754;10.110;2022-12-24T07:48:24;1.60;;;1.50;;
65289;SDS011;51893;59.754;10.110;2022-12-24T07:50:52;3.30;;;2.50;;
65289;SDS011;51893;59.754;10.110;2022-12-24T07:53:19;5.30;;;2.90;;
65289;SDS011;51893;59.754;10.110;2022-12-24T07:55:46;7.10;;;2.90;;
65289;SDS011;51893;59.754;10.110;2022-12-24T07:58:12;2.50;;;2.10;;
65289;SDS011;51893;59.754;10.110;2022-12-24T08:00:39;3.80;;;3.30;;
65289;SDS011;51893;59.754;10.110;2022-12-24T08:03:05;3.50;;;2.30;;
65289;SDS011;51893;59.754;10.110;2022-12-24T08:05:35;1.60;;;1.40;;
65289;SDS011;51893;59.754;10.110;2022-12-24T08:08:02;4.80;;;2.80;;
65289;SDS011;51893;59.754;10.110;2022-12-24T08:10:30;10.80;;;4.40;;
65289;SDS011;51893;59.754;10.110;2022-12-24T08:12:56;8.60;;;3.90;;
65289;SDS011;51893;59.754;10.110;2022-12-24T08:15:23;3.30;;;2.50;;
65289;SDS011;51893;59.754;10.110;2022-12-24T08:17:50;7.70;;;3.10;;
65289;SDS011;51893;59.754;10.110;2022-12-24T08:20:16;2.80;;;1.60;;
65289;SDS011;51893;59.754;10.110;2022-12-24T08:22:44;1.60;;;1.50;;
65289;SDS011;51893;59.754;10.110;2022-12-24T08:25:10;3.80;;;3.00;;
65289;SDS011;51893;59.754;10.110;2022-12-24T08:27:43;1.70;;;1.60;;
65289;SDS011;51893;59.754;10.110;2022-12-24T08:30:11;2.40;;;2.20;;
65289;SDS011;51893;59.754;10.110;2022-12-24T08:32:46;5.70;;;2.40;;
65289;SDS011;51893;59.754;10.110;2022-12-24T08:35:13;4.50;;;3.20;;
65289;SDS011;51893;59.754;10.110;2022-12-24T08:37:40;5.50;;;3.10;;
65289;SDS011;51893;59.754;10.110;2022-12-24T08:40:07;1.90;;;1.70;;
65289;SDS011;51893;59.754;10.110;2022-12-24T08:42:34;2.90;;;2.30;;
65289;SDS011;51893;59.754;10.110;2022-12-24T08:45:04;3.50;;;2.60;;
65289;SDS011;51893;59.754;10.110;2022-12-24T08:47:33;5.00;;;2.30;;
65289;SDS011;51893;59.754;10.110;2022-12-24T08:50:00;1.00;;;0.90;;
65289;SDS011;51893;59.754;10.110;2022-12-24T08:52:30;7.20;;;3.30;;
65289;SDS011;51893;59.754;10.110;2022-12-24T08:54:56;3.60;;;2.30;;
65289;SDS011;51893;59.754;10.110;2022-12-24T08:57:23;3.80;;;2.90;;
65289;SDS011;51893;59.754;10.110;2022-12-24T08:59:50;7.40;;;2.70;;
65289;SDS011;51893;59.754;10.110;2022-12-24T09:02:17;2.30;;;1.50;;
65289;SDS011;51893;59.754;10.110;2022-12-24T09:04:44;4.10;;;2.30;;
65289;SDS011;51893;59.754;10.110;2022-12-24T09:07:13;3.80;;;2.60;;
65289;SDS011;51893;59.754;10.110;2022-12-24T09:09:39;3.00;;;1.60;;
65289;SDS011;51893;59.754;10.110;2022-12-24T09:12:07;6.50;;;3.40;;
65289;SDS011;51893;59.754;10.110;2022-12-24T09:14:37;10.40;;;4.40;;
65289;SDS011;51893;59.754;10.110;2022-12-24T09:17:04;5.80;;;3.90;;
65289;SDS011;51893;59.754;10.110;2022-12-24T09:19:31;5.70;;;3.20;;
65289;SDS011;51893;59.754;10.110;2022-12-24T09:21:57;1.60;;;1.40;;
65289;SDS011;51893;59.754;10.110;2022-12-24T09:24:24;5.90;;;3.50;;
65289;SDS011;51893;59.754;10.110;2022-12-24T09:26:51;5.90;;;3.60;;
65289;SDS011;51893;59.754;10.110;2022-12-24T09:29:24;6.70;;;4.10;;
65289;SDS011;51893;59.754;10.110;2022-12-24T09:31:50;7.00;;;3.70;;
65289;SDS011;51893;59.754;10.110;2022-12-24T09:34:17;5.20;;;3.30;;
65289;SDS011;51893;59.754;10.110;2022-12-24T09:36:44;11.10;;;4.50;;
65289;SDS011;51893;59.754;10.110;2022-12-24T09:39:11;3.70;;;2.70;;
65289;SDS011;51893;59.754;10.110;2022-12-24T09:44:52;2.00;;;1.90;;
65289;SDS011;51893;59.754;10.110;2022-12-24T09:50:30;1.30;;;1.20;;
65289;SDS011;51893;59.754;10.110;2022-12-24T09:53:14;10.70;;;4.10;;
65289;SDS011;51893;59.754;10.110;2022-12-24T09:55:56;6.40;;;3.70;;
65289;SDS011;51893;59.754;10.110;2022-12-24T09:58:34;7.60;;;4.40;;
65289;SDS011;51893;59.754;10.110;2022-12-24T10:01:11;5.20;;;3.90;;
65289;SDS011;51893;59.754;10.110;2022-12-24T10:03:41;7.20;;;4.10;;
65289;SDS011;51893;59.754;10.110;2022-12-24T10:06:23;7.10;;;4.30;;
65289;SDS011;51893;59.754;10.110;2022-12-24T10:12:25;9.10;;;3.90;;
65289;SDS011;51893;59.754;10.110;2022-12-24T10:15:09;5.90;;;3.00;;
65289;SDS011;51893;59.754;10.110;2022-12-24T10:17:55;7.30;;;4.00;;
65289;SDS011;51893;59.754;10.110;2022-12-24T10:20:51;3.50;;;2.50;;
65289;SDS011;51893;59.754;10.110;2022-12-24T10:23:40;4.70;;;2.50;;
65289;SDS011;51893;59.754;10.110;2022-12-24T10:26:49;1.70;;;1.60;;
65289;SDS011;51893;59.754;10.110;2022-12-24T10:29:48;2.80;;;1.70;;
65289;SDS011;51893;59.754;10.110;2022-12-24T10:32:31;9.70;;;4.70;;
65289;SDS011;51893;59.754;10.110;2022-12-24T10:40:24;8.10;;;4.60;;
65289;SDS011;51893;59.754;10.110;2022-12-24T10:42:57;11.90;;;5.20;;
65289;SDS011;51893;59.754;10.110;2022-12-24T10:45:35;8.40;;;4.80;;
65289;SDS011;51893;59.754;10.110;2022-12-24T10:48:12;4.80;;;3.60;;
65289;SDS011;51893;59.754;10.110;2022-12-24T10:51:20;10.10;;;4.70;;
65289;SDS011;51893;59.754;10.110;2022-12-24T10:54:12;6.90;;;4.00;;
65289;SDS011;51893;59.754;10.110;2022-12-24T10:56:59;5.20;;;3.30;;
65289;SDS011;51893;59.754;10.110;2022-12-24T10:59:30;2.40;;;1.60;;
65289;SDS011;51893;59.754;10.110;2022-12-24T11:02:33;3.80;;;3.10;;
65289;SDS011;51893;59.754;10.110;2022-12-24T11:05:09;0.80;;;0.70;;
65289;SDS011;51893;59.754;10.110;2022-12-24T11:10:53;5.60;;;2.40;;
65289;SDS011;51893;59.754;10.110;2022-12-24T11:13:35;3.80;;;2.20;;
65289;SDS011;51893;59.754;10.110;2022-12-24T11:18:58;2.20;;;1.70;;
65289;SDS011;51893;59.754;10.110;2022-12-24T11:21:40;11.00;;;4.10;;
65289;SDS011;51893;59.754;10.110;2022-12-24T11:26:41;5.40;;;3.20;;
65289;SDS011;51893;59.754;10.110;2022-12-24T11:32:33;9.60;;;3.60;;
65289;SDS011;51893;59.754;10.110;2022-12-24T11:35:08;8.00;;;4.10;;
65289;SDS011;51893;59.754;10.110;2022-12-24T11:40:42;6.30;;;3.90;;
65289;SDS011;51893;59.754;10.110;2022-12-24T11:43:18;8.40;;;4.30;;
65289;SDS011;51893;59.754;10.110;2022-12-24T11:45:54;6.30;;;3.60;;
65289;SDS011;51893;59.754;10.110;2022-12-24T11:48:28;9.70;;;4.90;;
65289;SDS011;51893;59.754;10.110;2022-12-24T11:51:03;22.10;;;9.30;;
65289;SDS011;51893;59.754;10.110;2022-12-24T11:54:23;15.60;;;6.60;;
65289;SDS011;51893;59.754;10.110;2022-12-24T11:56:58;8.10;;;4.70;;
65289;SDS011;51893;59.754;10.110;2022-12-24T11:59:37;10.30;;;5.50;;
65289;SDS011;51893;59.754;10.110;2022-12-24T12:02:30;10.80;;;7.40;;
65289;SDS011;51893;59.754;10.110;2022-12-24T12:05:04;6.30;;;3.20;;
65289;SDS011;51893;59.754;10.110;2022-12-24T12:10:14;5.10;;;3.40;;
65289;SDS011;51893;59.754;10.110;2022-12-24T12:15:32;5.60;;;2.80;;
65289;SDS011;51893;59.754;10.110;2022-12-24T12:18:14;7.50;;;3.60;;
65289;SDS011;51893;59.754;10.110;2022-12-24T12:20:53;4.10;;;2.30;;
65289;SDS011;51893;59.754;10.110;2022-12-24T12:23:33;1.50;;;1.20;;
65289;SDS011;51893;59.754;10.110;2022-12-24T12:26:14;2.10;;;1.80;;
65289;SDS011;51893;59.754;10.110;2022-12-24T12:29:03;8.00;;;4.00;;
65289;SDS011;51893;59.754;10.110;2022-12-24T12:32:00;3.50;;;2.00;;
65289;SDS011;51893;59.754;10.110;2022-12-24T12:35:00;10.30;;;4.60;;
65289;SDS011;51893;59.754;10.110;2022-12-24T12:37:42;4.90;;;3.20;;
65289;SDS011;51893;59.754;10.110;2022-12-24T12:40:16;7.70;;;4.10;;
65289;SDS011;51893;59.754;10.110;2022-12-24T12:42:58;6.10;;;4.30;;
65289;SDS011;51893;59.754;10.110;2022-12-24T12:52:01;15.60;;;5.70;;
65289;SDS011;51893;59.754;10.110;2022-12-24T12:57:33;13.80;;;5.10;;
65289;SDS011;51893;59.754;10.110;2022-12-24T13:14:37;13.70;;;5.90;;
65289;SDS011;51893;59.754;10.110;2022-12-24T13:18:08;14.40;;;6.60;;
65289;SDS011;51893;59.754;10.110;2022-12-24T13:20:54;19.90;;;7.40;;
65289;SDS011;51893;59.754;10.110;2022-12-24T13:23:23;15.70;;;5.90;;
65289;SDS011;51893;59.754;10.110;2022-12-24T13:25:56;9.60;;;5.40;;
65289;SDS011;51893;59.754;10.110;2022-12-24T13:33:57;10.30;;;5.40;;
65289;SDS011;51893;59.754;10.110;2022-12-24T13:37:04;5.30;;;3.60;;
65289;SDS011;51893;59.754;10.110;2022-12-24T13:45:41;9.40;;;3.60;;
65289;SDS011;51893;59.754;10.110;2022-12-24T13:48:30;2.40;;;2.10;;
65289;SDS011;51893;59.754;10.110;2022-12-24T13:51:19;9.20;;;4.30;;
65289;SDS011;51893;59.754;10.110;2022-12-24T13:53:56;13.50;;;7.00;;
65289;SDS011;51893;59.754;10.110;2022-12-24T13:56:30;12.50;;;5.50;;
65289;SDS011;51893;59.754;10.110;2022-12-24T13:59:23;14.00;;;6.30;;
65289;SDS011;51893;59.754;10.110;2022-12-24T14:02:04;9.20;;;3.90;;
65289;SDS011;51893;59.754;10.110;2022-12-24T14:04:49;13.20;;;5.40;;
65289;SDS011;51893;59.754;10.110;2022-12-24T14:07:18;10.40;;;5.10;;
65289;SDS011;51893;59.754;10.110;2022-12-24T14:09:51;9.90;;;4.60;;
65289;SDS011;51893;59.754;10.110;2022-12-24T14:12:45;27.80;;;9.70;;
65289;SDS011;51893;59.754;10.110;2022-12-24T14:15:44;14.60;;;7.20;;
65289;SDS011;51893;59.754;10.110;2022-12-24T14:18:19;8.40;;;5.20;;
65289;SDS011;51893;59.754;10.110;2022-12-24T14:20:50;16.50;;;6.30;;
65289;SDS011;51893;59.754;10.110;2022-12-24T14:26:20;22.10;;;9.10;;
65289;SDS011;51893;59.754;10.110;2022-12-24T14:28:56;11.80;;;5.70;;
65289;SDS011;51893;59.754;10.110;2022-12-24T14:31:30;20.00;;;8.30;;
65289;SDS011;51893;59.754;10.110;2022-12-24T14:34:08;6.20;;;4.10;;
65289;SDS011;51893;59.754;10.110;2022-12-24T14:36:41;11.20;;;5.70;;
65289;SDS011;51893;59.754;10.110;2022-12-24T14:39:37;14.70;;;7.10;;
65289;SDS011;51893;59.754;10.110;2022-12-24T14:45:42;33.90;;;12.60;;
65289;SDS011;51893;59.754;10.110;2022-12-24T14:48:31;22.30;;;10.00;;
65289;SDS011;51893;59.754;10.110;2022-12-24T14:51:29;15.30;;;9.10;;
65289;SDS011;51893;59.754;10.110;2022-12-24T14:54:31;20.20;;;9.20;;
65289;SDS011;51893;59.754;10.110;2022-12-24T14:59:43;10.20;;;5.70;;
65289;SDS011;51893;59.754;10.110;2022-12-24T15:05:37;15.20;;;7.70;;
65289;SDS011;51893;59.754;10.110;2022-12-24T15:08:11;23.70;;;9.20;;
65289;SDS011;51893;59.754;10.110;2022-12-24T15:11:06;26.80;;;11.10;;
65289;SDS011;51893;59.754;10.110;2022-12-24T15:13:39;22.30;;;11.40;;
65289;SDS011;51893;59.754;10.110;2022-12-24T15:16:12;24.40;;;11.70;;
65289;SDS011;51893;59.754;10.110;2022-12-24T15:19:22;26.40;;;12.50;;
65289;SDS011;51893;59.754;10.110;2022-12-24T15:21:57;14.40;;;9.60;;
65289;SDS011;51893;59.754;10.110;2022-12-24T15:24:30;23.50;;;12.00;;
65289;SDS011;51893;59.754;10.110;2022-12-24T15:27:14;28.70;;;10.80;;
65289;SDS011;51893;59.754;10.110;2022-12-24T15:29:45;24.30;;;10.80;;
65289;SDS011;51893;59.754;10.110;2022-12-24T15:32:15;12.90;;;6.80;;
65289;SDS011;51893;59.754;10.110;2022-12-24T15:34:47;9.40;;;5.20;;
65289;SDS011;51893;59.754;10.110;2022-12-24T15:37:28;14.50;;;5.60;;
65289;SDS011;51893;59.754;10.110;2022-12-24T15:40:09;12.80;;;6.30;;
65289;SDS011;51893;59.754;10.110;2022-12-24T15:42:49;16.40;;;7.10;;
65289;SDS011;51893;59.754;10.110;2022-12-24T15:45:27;15.70;;;6.40;;
65289;SDS011;51893;59.754;10.110;2022-12-24T15:48:07;13.30;;;5.10;;
65289;SDS011;51893;59.754;10.110;2022-12-24T15:51:00;7.70;;;4.00;;
65289;SDS011;51893;59.754;10.110;2022-12-24T15:53:42;7.40;;;4.40;;
65289;SDS011;51893;59.754;10.110;2022-12-24T15:56:12;16.10;;;6.80;;
65289;SDS011;51893;59.754;10.110;2022-12-24T15:59:34;26.40;;;10.90;;
65289;SDS011;51893;59.754;10.110;2022-12-24T16:02:36;13.40;;;7.50;;
65289;SDS011;51893;59.754;10.110;2022-12-24T16:05:31;13.10;;;6.40;;
65289;SDS011;51893;59.754;10.110;2022-12-24T16:08:05;16.00;;;7.80;;
65289;SDS011;51893;59.754;10.110;2022-12-24T16:10:38;17.20;;;8.90;;
65289;SDS011;51893;59.754;10.110;2022-12-24T16:13:27;22.80;;;10.20;;
65289;SDS011;51893;59.754;10.110;2022-12-24T16:16:19;11.30;;;5.00;;
65289;SDS011;51893;59.754;10.110;2022-12-24T16:18:57;17.10;;;8.70;;
65289;SDS011;51893;59.754;10.110;2022-12-24T16:21:27;12.00;;;6.20;;
65289;SDS011;51893;59.754;10.110;2022-12-24T16:26:45;20.40;;;7.80;;
65289;SDS011;51893;59.754;10.110;2022-12-24T16:29:14;14.20;;;5.20;;
65289;SDS011;51893;59.754;10.110;2022-12-24T16:31:53;14.40;;;6.50;;
65289;SDS011;51893;59.754;10.110;2022-12-24T16:34:28;16.30;;;8.10;;
65289;SDS011;51893;59.754;10.110;2022-12-24T16:36:58;20.80;;;8.40;;
65289;SDS011;51893;59.754;10.110;2022-12-24T16:39:43;26.00;;;10.80;;
65289;SDS011;51893;59.754;10.110;2022-12-24T16:42:13;8.20;;;4.60;;
65289;SDS011;51893;59.754;10.110;2022-12-24T16:44:59;6.60;;;3.30;;
65289;SDS011;51893;59.754;10.110;2022-12-24T16:47:32;26.80;;;10.50;;
65289;SDS011;51893;59.754;10.110;2022-12-24T16:50:15;7.60;;;3.90;;
65289;SDS011;51893;59.754;10.110;2022-12-24T16:52:42;18.30;;;8.20;;
65289;SDS011;51893;59.754;10.110;2022-12-24T16:55:13;19.90;;;6.00;;
65289;SDS011;51893;59.754;10.110;2022-12-24T16:57:43;20.00;;;8.90;;
65289;SDS011;51893;59.754;10.110;2022-12-24T17:00:36;28.00;;;8.50;;
65289;SDS011;51893;59.754;10.110;2022-12-24T17:03:03;25.40;;;9.90;;
65289;SDS011;51893;59.754;10.110;2022-12-24T17:05:37;17.80;;;8.10;;
65289;SDS011;51893;59.754;10.110;2022-12-24T17:08:06;2.70;;;2.50;;